ADDS METAR Data INFO
IDs: Format: Raw Decoded Include TAF

Data at: 0218 UTC 14 Dec 2017

KFMY 140153Z 00000KT 10SM CLR 13/09 A3010 RMK AO2 SLP196 T01330089 $
KFMY 140053Z 30005KT 10SM CLR 14/09 A3010 RMK AO2 SLP196 T01440094 $
KFMY 132353Z 28005KT 10SM CLR 15/10 A3009 RMK AO2 SLP190 T01500100 10194 20150 53012 $
KFMY 132253Z 30008KT 10SM CLR 16/08 A3007 RMK AO2 SLP183 T01560083 $
KFMY 132153Z 29007KT 10SM CLR 18/07 A3006 RMK AO2 SLP181 T01780067 $
KFMY 132053Z 31007KT 10SM CLR 19/04 A3005 RMK AO2 SLP178 T01890039 56012 $
KFMY 131953Z 32008KT 10SM CLR 19/04 A3006 RMK AO2 SLP180 T01890044 $
KFMY 131853Z 30006KT 10SM CLR 18/06 A3006 RMK AO2 SLP182 T01830056 $
KFMY 131753Z VRB03KT 10SM CLR 17/06 A3009 RMK AO2 SLP190 T01720056 10178 20106 58022 $
KFMY 131653Z 35006KT 10SM CLR 17/06 A3013 RMK AO2 SLP203 T01670061 $
KFMY 131553Z 01009KT 10SM CLR 16/04 A3014 RMK AO2 SLP209 T01610044 $
KFMY 131453Z 02010KT 10SM CLR 14/04 A3015 RMK AO2 SLP212 T01440039 51017 $
KFMY 131353Z 02012G19KT 10SM CLR 12/02 A3014 RMK AO2 SLP208 T01220022 $
KFMY 131253Z 02009KT 10SM CLR 11/03 A3013 RMK AO2 SLP204 T01110028 $
KFMY 131153Z 02011KT 10SM CLR 11/03 A3010 RMK AO2 SLP194 T01060028 10156 20106 53022
KFMY 131053Z AUTO 02009KT 10SM CLR 11/04 A3007 RMK AO2 SLP184 T01110039
KFMY 130953Z AUTO 02009KT 10SM CLR 12/04 A3005 RMK AO2 SLP177 T01170044
KFMY 130853Z AUTO 02008KT 10SM CLR 12/06 A3003 RMK AO2 SLP172 T01220056 53008
KFMY 130753Z AUTO 01009KT 10SM CLR 13/08 A3002 RMK AO2 SLP167 T01330078
KFMY 130653Z AUTO 36007KT 10SM CLR 15/09 A3001 RMK AO2 SLP165 T01500089
KFMY 130553Z AUTO 35009KT 10SM CLR 15/10 A3001 RMK AO2 SLP164 T01500100 10194 20150 51005
KFMY 130453Z AUTO 34012KT 10SM CLR 17/11 A3001 RMK AO2 SLP162 T01670111 402440067
KFMY 130353Z AUTO 34008KT 10SM CLR 18/12 A3000 RMK AO2 SLP161 T01780122
KFMY 130253Z AUTO 31006KT 9SM FEW047 19/14 A2999 RMK AO2 SLP159 T01890139 53010
KFMY 130153Z 28006KT 10SM CLR 18/14 A2998 RMK AO2 SLP153 T01830139
KFMY 130053Z 27005KT 10SM CLR 18/13 A2997 RMK AO2 SLP149 T01780133
KFMY 122353Z 27005KT 10SM CLR 19/14 A2996 RMK AO2 SLP148 T01940139 10244 20194 53001
KFMY 122253Z 28008KT 10SM CLR 21/13 A2996 RMK AO2 SLP147 T02060133
KFMY 122153Z 29010KT 10SM CLR 22/13 A2996 RMK AO2 SLP147 T02220128
KFMY 122053Z AUTO 31015G26KT 10SM BKN040 BKN060 22/13 A2996 RMK AO2 PK WND 33026/2046 SLP147 T02220133 55009
KFMY 121953Z 28016G24KT 10SM FEW045 FEW070 23/12 A2996 RMK AO2 PK WND 26027/1927 SLP147 T02330117
KFMY 121853Z 28014G22KT 10SM FEW043 OVC065 22/13 A2996 RMK AO2 PK WND 26027/1825 SLP149 T02220133
KFMY 121753Z 26015G22KT 10SM SCT065 24/13 A2999 RMK AO2 SLP156 T02390128 10239 20078 58034
KFMY 121653Z 26014G20KT 10SM FEW045 23/12 A3003 RMK AO2 SLP171 T02280122
KFMY 121553Z 21009KT 10SM CLR 21/14 A3007 RMK AO2 SLP184 T02110139
KFMY 121453Z 20006KT 10SM CLR 19/12 A3009 RMK AO2 SLP190 T01890122 58001